createdAt,value
2023-03-06T00:00:32.582Z,100027.31
2023-03-06T00:03:05.186Z,100024.81
2023-03-06T00:05:35.493Z,100020.88
2023-03-06T00:08:05.524Z,100018.56
2023-03-06T00:10:35.743Z,100013.72
2023-03-06T00:13:08.240Z,100010.66
2023-03-06T00:15:38.201Z,100007.25
2023-03-06T00:18:11.222Z,99995.44
2023-03-06T00:20:44.456Z,99993.84
2023-03-06T00:23:14.865Z,99989.25
2023-03-06T00:25:46.234Z,100011.78
2023-03-06T00:28:17.947Z,99995.94
2023-03-06T00:30:48.764Z,100002.50
2023-03-06T00:33:21.296Z,100005.59
2023-03-06T00:35:51.164Z,99998.13
2023-03-06T00:38:21.210Z,99994.00
2023-03-06T00:40:52.755Z,99988.31
2023-03-06T00:43:22.593Z,99991.19
2023-03-06T00:45:52.667Z,99989.97
2023-03-06T00:48:25.389Z,99999.03
2023-03-06T00:50:55.377Z,99989.47
2023-03-06T00:53:25.642Z,99979.19
2023-03-06T00:55:55.593Z,99984.84
2023-03-06T00:58:25.726Z,99966.47
2023-03-06T01:00:56.230Z,99977.03
2023-03-06T01:03:28.787Z,99972.78
2023-03-06T01:05:58.778Z,99969.94
2023-03-06T01:08:28.630Z,99966.75
2023-03-06T01:10:59.680Z,99967.81
2023-03-06T01:13:29.750Z,99945.66
2023-03-06T01:16:08.539Z,99962.81
2023-03-06T01:18:43.320Z,99958.53
2023-03-06T01:21:16.120Z,99959.28
2023-03-06T01:23:46.300Z,99951.66
2023-03-06T01:26:16.402Z,99948.13
2023-03-06T01:28:46.912Z,99952.19
2023-03-06T01:31:17.038Z,99947.78
2023-03-06T01:33:49.615Z,99941.03
2023-03-06T01:36:20.033Z,99943.84
2023-03-06T01:38:49.955Z,99955.97
2023-03-06T01:41:21.286Z,99938.94
2023-03-06T01:43:52.329Z,99948.00
2023-03-06T01:46:41.886Z,99944.13
2023-03-06T01:49:23.111Z,99927.50
2023-03-06T01:51:57.211Z,99935.78
2023-03-06T01:54:29.705Z,99928.84
2023-03-06T01:57:05.663Z,99907.66
2023-03-06T01:59:38.096Z,99929.75
2023-03-06T02:02:09.870Z,99925.81
2023-03-06T02:04:44.269Z,99930.97
2023-03-06T02:07:15.194Z,99921.00
2023-03-06T02:09:45.238Z,99924.94
2023-03-06T02:12:19.570Z,99919.09
2023-03-06T02:14:49.790Z,99924.63
2023-03-06T02:17:22.540Z,99905.41
2023-03-06T02:20:02.712Z,99903.34
2023-03-06T02:22:39.101Z,99906.00
2023-03-06T02:25:16.317Z,99916.84
2023-03-06T02:27:50.294Z,99905.75
2023-03-06T02:30:22.154Z,99913.06
2023-03-06T02:32:52.157Z,99907.91
2023-03-06T02:35:23.828Z,99909.19
2023-03-06T02:37:54.181Z,99901.56
2023-03-06T02:40:25.858Z,99892.50
2023-03-06T02:43:00.257Z,99900.84
2023-03-06T02:45:38.338Z,99897.13
2023-03-06T02:48:09.538Z,99895.16
2023-03-06T02:50:39.394Z,99874.66
2023-03-06T02:53:10.360Z,99894.09
2023-03-06T02:55:40.725Z,99880.13
2023-03-06T02:58:13.463Z,99883.81
2023-03-06T03:00:43.607Z,99876.34
2023-03-06T03:03:13.540Z,99881.34
2023-03-06T03:05:43.551Z,99881.00
2023-03-06T03:08:23.954Z,99873.91
2023-03-06T03:10:59.019Z,99868.94
2023-03-06T03:13:35.240Z,99875.47
2023-03-06T03:16:08.187Z,99865.91
2023-03-06T03:18:38.760Z,99849.84
2023-03-06T03:21:13.630Z,99868.72
2023-03-06T03:23:44.244Z,99861.81
2023-03-06T03:26:16.281Z,99858.13
2023-03-06T03:28:54.111Z,99852.81
2023-03-06T03:31:25.110Z,99862.97
2023-03-06T03:33:55.534Z,99853.03
2023-03-06T03:36:27.514Z,99856.25
2023-03-06T03:38:58.118Z,99801.78
2023-03-06T03:41:28.737Z,99842.41
2023-03-06T03:44:01.519Z,99842.75
2023-03-06T03:46:31.773Z,99802.44
2023-03-06T03:49:04.418Z,99841.88
2023-03-06T03:51:35.518Z,99837.44
2023-03-06T03:54:06.329Z,99843.16
2023-03-06T03:56:40.830Z,99838.03
2023-03-06T03:59:21.134Z,99836.22
2023-03-06T04:02:11.564Z,99821.16
2023-03-06T04:04:50.489Z,99821.16
2023-03-06T04:07:21.720Z,99818.16
2023-03-06T04:09:52.325Z,99811.06
2023-03-06T04:12:22.458Z,99812.25
2023-03-06T04:14:54.988Z,99814.59
2023-03-06T04:17:26.130Z,99810.16
2023-03-06T04:19:57.524Z,99804.28
2023-03-06T04:22:27.898Z,99802.84
2023-03-06T04:24:58.661Z,99799.09
2023-03-06T04:27:28.624Z,99802.22
2023-03-06T04:30:01.365Z,99809.16
2023-03-06T04:32:31.621Z,99787.69
2023-03-06T04:35:02.287Z,99806.44
2023-03-06T04:37:38.331Z,99798.47
2023-03-06T04:40:10.440Z,99800.41
2023-03-06T04:42:40.638Z,99800.25
2023-03-06T04:45:14.164Z,99795.13
2023-03-06T04:47:44.763Z,99795.13
2023-03-06T04:50:15.555Z,99788.75
2023-03-06T04:52:46.391Z,99789.25
2023-03-06T04:55:18.622Z,99790.16
2023-03-06T04:57:50.280Z,99789.56
2023-03-06T05:00:30.427Z,99790.47
2023-03-06T05:03:01.671Z,99781.41
2023-03-06T05:05:32.187Z,99787.88
2023-03-06T05:08:02.138Z,99786.44
2023-03-06T05:10:32.334Z,99782.91
2023-03-06T05:13:02.371Z,99783.66
2023-03-06T05:15:34.902Z,99788.22
2023-03-06T05:18:04.808Z,99784.84
2023-03-06T05:20:34.715Z,99758.84
2023-03-06T05:23:04.681Z,99782.59
2023-03-06T05:25:34.753Z,99762.28
2023-03-06T05:28:04.656Z,99780.75
2023-03-06T05:30:37.857Z,99781.63
2023-03-06T05:33:07.794Z,99776.97
2023-03-06T05:35:37.725Z,99777.31
2023-03-06T05:38:07.689Z,99770.25
2023-03-06T05:40:37.660Z,99780.19
2023-03-06T05:43:08.235Z,99772.72
2023-03-06T05:45:41.869Z,99773.59
2023-03-06T05:48:13.946Z,99765.97
2023-03-06T05:50:44.335Z,99765.28
2023-03-06T05:53:14.212Z,99770.56
2023-03-06T05:55:44.231Z,99762.78
2023-03-06T05:58:14.256Z,99762.59
2023-03-06T06:00:46.869Z,99765.97
2023-03-06T06:03:16.808Z,99763.25
2023-03-06T06:05:47.170Z,99769.66
2023-03-06T06:08:17.502Z,99743.66
2023-03-06T06:10:47.560Z,99760.91
2023-03-06T06:13:17.681Z,99763.84
2023-03-06T06:15:50.219Z,99723.50
2023-03-06T06:18:20.255Z,99750.66
2023-03-06T06:20:50.324Z,99758.50
2023-03-06T06:23:20.337Z,99752.25
2023-03-06T06:25:51.738Z,99753.00
2023-03-06T06:28:21.835Z,99763.84
2023-03-06T06:30:55.089Z,99742.38
2023-03-06T06:33:25.890Z,99759.16
2023-03-06T06:35:56.261Z,99759.94
2023-03-06T06:38:26.265Z,99756.91
2023-03-06T06:41:27.145Z,99747.13
2023-03-06T06:43:45.948Z,99757.47
2023-03-06T06:46:53.304Z,99754.25
2023-03-06T06:49:08.616Z,99743.09
2023-03-06T06:51:39.527Z,99748.97
2023-03-06T06:54:10.164Z,99762.53
2023-03-06T06:56:40.434Z,99753.16
2023-03-06T06:59:16.519Z,99749.22
2023-03-06T07:01:50.168Z,99758.69
2023-03-06T07:04:20.613Z,99754.06
2023-03-06T07:06:50.546Z,99758.84
2023-03-06T07:09:20.832Z,99751.97
2023-03-06T07:11:50.911Z,99760.13
2023-03-06T07:14:21.735Z,99757.88
2023-03-06T07:16:54.466Z,99760.38
2023-03-06T07:19:24.692Z,99755.94
2023-03-06T07:21:54.694Z,99746.41
2023-03-06T07:24:24.780Z,99728.66
2023-03-06T07:26:55.272Z,99754.25
2023-03-06T07:29:25.302Z,99758.53
2023-03-06T07:31:58.009Z,99754.25
2023-03-06T07:34:28.067Z,99757.41
2023-03-06T07:36:58.110Z,99757.72
2023-03-06T07:39:28.242Z,99767.28
2023-03-06T07:41:58.755Z,99765.88
2023-03-06T07:44:29.204Z,99766.22
2023-03-06T07:47:02.020Z,99778.78
2023-03-06T07:49:31.948Z,99778.88
2023-03-06T07:52:03.502Z,99772.53
2023-03-06T07:54:35.333Z,99777.13
2023-03-06T07:57:05.410Z,99776.13
2023-03-06T07:59:35.335Z,99774.91
2023-03-06T08:02:07.913Z,99782.00
2023-03-06T08:04:37.886Z,99778.81
2023-03-06T08:07:08.068Z,99781.00
2023-03-06T08:09:38.656Z,99778.97
2023-03-06T08:12:09.960Z,99783.66
2023-03-06T08:14:40.077Z,99786.78
2023-03-06T08:17:14.110Z,99779.94
2023-03-06T08:19:44.126Z,99779.47
2023-03-06T08:22:14.295Z,99778.03
2023-03-06T08:24:44.344Z,99794.84
2023-03-06T08:27:14.321Z,99797.75
2023-03-06T08:29:44.198Z,99796.78
2023-03-06T08:32:17.034Z,99792.44
2023-03-06T08:34:47.465Z,99799.63
2023-03-06T08:37:17.462Z,99774.66
2023-03-06T08:39:47.408Z,99791.72
2023-03-06T08:42:17.517Z,99806.81
2023-03-06T08:44:47.732Z,99803.53
2023-03-06T08:47:21.446Z,99797.19
2023-03-06T08:49:51.502Z,99793.31
2023-03-06T08:52:21.593Z,99795.63
2023-03-06T08:54:51.607Z,99804.31
2023-03-06T08:57:21.545Z,99803.44
2023-03-06T08:59:51.567Z,99794.19
2023-03-06T09:02:24.212Z,99811.19
2023-03-06T09:04:54.260Z,99815.25
2023-03-06T09:07:24.398Z,99813.59
2023-03-06T09:09:57.910Z,99814.22
2023-03-06T09:12:30.730Z,99816.13
2023-03-06T09:15:00.810Z,99811.94
2023-03-06T09:17:33.406Z,99824.31
2023-03-06T09:20:04.054Z,99824.31
2023-03-06T09:22:34.276Z,99821.38
2023-03-06T09:25:04.771Z,99818.06
2023-03-06T09:27:34.886Z,99827.47
2023-03-06T09:30:05.131Z,99827.50
2023-03-06T09:32:37.841Z,99825.19
2023-03-06T09:35:08.776Z,99808.88
2023-03-06T09:37:38.714Z,99833.31
2023-03-06T09:40:09.676Z,99834.56
2023-03-06T09:42:39.601Z,99835.34
2023-03-06T09:45:10.570Z,99812.69
2023-03-06T09:47:50.535Z,99827.44
2023-03-06T09:50:40.641Z,99841.03
2023-03-06T09:53:21.379Z,99842.09
2023-03-06T09:55:56.950Z,99811.22
2023-03-06T09:58:30.020Z,99835.03
2023-03-06T10:01:04.323Z,99838.97
2023-03-06T10:03:39.503Z,99829.44
2023-03-06T10:06:18.909Z,99833.00
2023-03-06T10:08:54.407Z,99822.78
2023-03-06T10:11:29.176Z,99824.16
2023-03-06T10:14:11.047Z,99818.47
2023-03-06T10:16:41.070Z,99820.03
2023-03-06T10:19:17.955Z,99815.63
2023-03-06T10:21:55.986Z,99818.63
2023-03-06T10:24:39.133Z,99821.59
2023-03-06T10:27:21.707Z,99824.16
2023-03-06T10:30:03.112Z,99820.34
2023-03-06T10:32:49.084Z,99809.53
2023-03-06T10:35:24.479Z,99814.75
2023-03-06T10:38:02.415Z,99782.75
2023-03-06T10:40:43.574Z,99810.47
2023-03-06T10:43:14.483Z,99805.72
2023-03-06T10:45:50.905Z,99809.03
2023-03-06T10:48:23.703Z,99805.13
2023-03-06T10:51:18.126Z,99805.38
2023-03-06T10:53:52.822Z,99793.44
2023-03-06T10:56:31.029Z,99808.56
2023-03-06T10:59:14.174Z,99782.59
2023-03-06T11:01:45.196Z,99822.00
2023-03-06T11:04:28.240Z,99815.31
2023-03-06T11:07:20.147Z,99816.22
2023-03-06T11:10:04.607Z,99823.50
2023-03-06T11:12:36.509Z,99825.53
2023-03-06T11:15:23.709Z,99832.69
2023-03-06T11:18:03.663Z,99836.63
2023-03-06T11:20:50.498Z,99843.09
2023-03-06T11:23:35.131Z,99844.56
2023-03-06T11:26:23.475Z,99839.88
2023-03-06T11:29:06.695Z,99851.38
2023-03-06T11:31:40.742Z,99836.44
2023-03-06T11:34:16.945Z,99836.84
2023-03-06T11:36:53.231Z,99832.28
2023-03-06T11:39:33.184Z,99826.31
2023-03-06T11:42:12.208Z,99836.94
2023-03-06T11:44:56.023Z,99833.47
2023-03-06T11:47:28.734Z,99831.03
2023-03-06T11:50:08.909Z,99826.63
2023-03-06T11:52:47.944Z,99829.31
2023-03-06T11:55:31.134Z,99825.91
2023-03-06T11:58:14.831Z,99825.41
2023-03-06T12:00:53.070Z,99822.41
2023-03-06T12:04:01.607Z,99820.47
2023-03-06T12:06:40.877Z,99802.63
2023-03-06T12:09:25.205Z,99789.00
2023-03-06T12:12:11.225Z,99819.44
2023-03-06T12:14:56.577Z,99802.31
2023-03-06T12:17:38.667Z,99793.91
2023-03-06T12:20:30.690Z,99807.13
2023-03-06T12:23:15.329Z,99793.03
2023-03-06T12:25:49.162Z,99800.03
2023-03-06T12:28:50.405Z,99792.78
2023-03-06T12:31:30.326Z,99791.03
2023-03-06T12:34:14.138Z,99801.25
2023-03-06T12:37:04.260Z,99795.16
2023-03-06T12:39:50.903Z,99793.03
2023-03-06T12:42:36.820Z,99779.16
2023-03-06T12:45:39.730Z,99794.81
2023-03-06T12:48:20.800Z,99800.28
2023-03-06T12:50:51.638Z,99795.94
2023-03-06T12:53:28.813Z,99802.63
2023-03-06T12:56:01.039Z,99797.16
2023-03-06T12:58:49.851Z,99807.06
2023-03-06T13:01:43.754Z,99793.84
2023-03-06T13:04:34.418Z,99803.16
2023-03-06T13:07:27.849Z,99793.44
2023-03-06T13:10:10.523Z,99785.81
2023-03-06T13:12:55.981Z,99745.47
2023-03-06T13:15:40.036Z,99777.47
2023-03-06T13:18:40.047Z,99784.81
2023-03-06T13:21:39.994Z,99777.44
2023-03-06T13:24:22.714Z,99777.81
2023-03-06T13:27:09.510Z,99746.63
2023-03-06T13:30:07.472Z,99771.72
2023-03-06T13:32:38.959Z,99772.06
2023-03-06T13:35:50.464Z,99772.31
2023-03-06T13:38:56.343Z,99768.88
2023-03-06T13:41:56.841Z,99768.16
2023-03-06T13:44:54.205Z,99770.38
2023-03-06T13:47:55.734Z,99772.84
2023-03-06T13:50:38.836Z,99766.53
2023-03-06T13:53:33.625Z,99769.75
2023-03-06T13:56:13.491Z,99764.47
2023-03-06T13:59:05.150Z,99768.75
2023-03-06T14:01:48.583Z,99764.50
2023-03-06T14:04:38.937Z,99758.91
2023-03-06T14:07:24.707Z,99756.97
2023-03-06T14:10:12.095Z,99751.94
2023-03-06T14:12:45.526Z,99742.78
2023-03-06T14:15:22.842Z,99742.44
2023-03-06T14:17:59.917Z,99698.38
2023-03-06T14:20:36.695Z,99741.22
2023-03-06T14:23:32.318Z,99736.00
2023-03-06T14:26:09.305Z,99723.19
2023-03-06T14:28:39.704Z,99711.13
2023-03-06T14:31:19.155Z,99722.53
2023-03-06T14:33:54.470Z,99722.28
2023-03-06T14:36:26.341Z,99711.19
2023-03-06T14:38:59.461Z,99717.16
2023-03-06T14:41:32.217Z,99716.63
2023-03-06T14:44:21.684Z,99709.63
2023-03-06T14:46:55.894Z,99714.53
2023-03-06T14:49:26.645Z,99710.25
2023-03-06T14:52:00.647Z,99714.78
2023-03-06T14:54:32.989Z,99716.84
2023-03-06T14:57:06.764Z,99718.94
2023-03-06T14:59:44.525Z,99711.44
2023-03-06T15:02:23.128Z,99672.34
2023-03-06T15:04:56.721Z,99703.75
2023-03-06T15:07:30.817Z,99706.09
2023-03-06T15:10:03.039Z,99712.75
2023-03-06T15:12:39.514Z,99705.69
2023-03-06T15:15:28.698Z,99705.25
2023-03-06T15:18:01.579Z,99701.72
2023-03-06T15:20:48.738Z,99696.44
2023-03-06T15:23:21.070Z,99701.47
2023-03-06T15:26:00.448Z,99708.66
2023-03-06T15:28:39.692Z,99703.09
2023-03-06T15:31:24.868Z,99700.31
2023-03-06T15:34:18.652Z,99701.16
2023-03-06T15:36:51.526Z,99703.53
2023-03-06T15:39:37.627Z,99711.44
2023-03-06T15:42:19.337Z,99700.16
2023-03-06T15:44:54.099Z,99696.59
2023-03-06T15:47:25.213Z,99695.09
2023-03-06T15:49:58.045Z,99695.22
2023-03-06T15:52:27.952Z,99695.81
2023-03-06T15:54:57.943Z,99698.59
2023-03-06T15:57:30.907Z,99699.72
2023-03-06T16:00:03.892Z,99697.84
2023-03-06T16:02:41.387Z,99695.16
2023-03-06T16:05:18.065Z,99689.28
2023-03-06T16:07:48.382Z,99695.44
2023-03-06T16:10:21.112Z,99690.13
2023-03-06T16:12:53.344Z,99683.53
2023-03-06T16:15:27.077Z,99682.34
2023-03-06T16:17:57.074Z,99674.25
2023-03-06T16:20:32.317Z,99678.06
2023-03-06T16:23:05.672Z,99677.31
2023-03-06T16:25:35.642Z,99669.22
2023-03-06T16:28:07.568Z,99677.47
2023-03-06T16:30:38.449Z,99649.53
2023-03-06T16:33:09.009Z,99674.47
2023-03-06T16:35:44.625Z,99670.66
2023-03-06T16:38:15.736Z,99676.06
2023-03-06T16:40:46.051Z,99672.66
2023-03-06T16:43:16.651Z,99665.44
2023-03-06T16:45:46.604Z,99654.88
2023-03-06T16:48:18.997Z,99662.06
2023-03-06T16:50:51.584Z,99663.81
2023-03-06T16:53:21.656Z,99669.53
2023-03-06T16:55:51.644Z,99665.44
2023-03-06T16:58:21.866Z,99656.94
2023-03-06T17:00:51.756Z,99647.66
2023-03-06T17:03:21.733Z,99668.38
2023-03-06T17:05:54.275Z,99663.09
2023-03-06T17:08:24.338Z,99668.66
2023-03-06T17:10:54.326Z,99662.19
2023-03-06T17:13:24.620Z,99662.28
2023-03-06T17:15:59.043Z,99665.34
2023-03-06T17:18:30.080Z,99669.16
2023-03-06T17:21:03.008Z,99659.41
2023-03-06T17:23:33.489Z,99670.88
2023-03-06T17:26:07.969Z,99663.81
2023-03-06T17:28:38.550Z,99663.63
2023-03-06T17:31:15.571Z,99667.41
2023-03-06T17:33:46.106Z,99669.47
2023-03-06T17:36:19.606Z,99660.63
2023-03-06T17:38:49.846Z,99668.75
2023-03-06T17:41:19.737Z,99665.47
2023-03-06T17:43:49.998Z,99659.84
2023-03-06T17:46:20.143Z,99672.16
2023-03-06T17:48:50.273Z,99638.81
2023-03-06T17:51:22.938Z,99667.41
2023-03-06T17:53:53.348Z,99661.56
2023-03-06T17:56:23.442Z,99663.03
2023-03-06T17:58:53.411Z,99667.69
2023-03-06T18:01:27.546Z,99664.88
2023-03-06T18:03:57.300Z,99663.69
2023-03-06T18:06:30.400Z,99659.41
2023-03-06T18:09:00.724Z,99655.00
2023-03-06T18:11:31.357Z,99664.09
2023-03-06T18:14:04.382Z,99621.72
2023-03-06T18:16:35.570Z,99655.59
2023-03-06T18:19:05.553Z,99658.78
2023-03-06T18:21:38.404Z,99654.38
2023-03-06T18:24:09.500Z,99647.31
2023-03-06T18:26:39.841Z,99646.44
2023-03-06T18:29:12.320Z,99643.06
2023-03-06T18:31:44.798Z,99644.34
2023-03-06T18:34:18.448Z,99638.66
2023-03-06T18:36:52.885Z,99639.53
2023-03-06T18:39:24.060Z,99635.84
2023-03-06T18:41:53.931Z,99641.22
2023-03-06T18:44:26.873Z,99638.88
2023-03-06T18:46:56.819Z,99637.69
2023-03-06T18:49:26.745Z,99628.88
2023-03-06T18:51:59.231Z,99627.09
2023-03-06T18:54:29.846Z,99628.72
2023-03-06T18:56:59.888Z,99607.63
2023-03-06T18:59:29.906Z,99615.56
2023-03-06T19:02:00.321Z,99610.72
2023-03-06T19:04:30.778Z,99609.69
2023-03-06T19:07:03.385Z,99604.66
2023-03-06T19:09:33.599Z,99598.63
2023-03-06T19:12:04.369Z,99599.03
2023-03-06T19:14:34.481Z,99587.34
2023-03-06T19:17:04.743Z,99599.59
2023-03-06T19:19:34.658Z,99589.03
2023-03-06T19:22:07.364Z,99586.59
2023-03-06T19:24:37.742Z,99584.69
2023-03-06T19:27:15.964Z,99587.00
2023-03-06T19:29:46.107Z,99585.00
2023-03-06T19:32:16.730Z,99574.03
2023-03-06T19:34:47.573Z,99585.25
2023-03-06T19:37:20.985Z,99492.09
2023-03-06T19:39:51.374Z,99563.69
2023-03-06T19:42:21.355Z,99577.00
2023-03-06T19:44:51.560Z,99568.34
2023-03-06T19:47:21.956Z,99567.59
2023-03-06T19:49:55.041Z,99562.63
2023-03-06T19:52:28.533Z,99568.56
2023-03-06T19:54:58.553Z,99563.03
2023-03-06T19:57:28.783Z,99553.09
2023-03-06T19:59:58.878Z,99521.94
2023-03-06T20:02:29.349Z,99542.66
2023-03-06T20:04:59.394Z,99554.94
2023-03-06T20:07:32.241Z,99544.09
2023-03-06T20:10:03.720Z,99537.22
2023-03-06T20:12:34.419Z,99534.59
2023-03-06T20:15:04.828Z,99532.50
2023-03-06T20:17:36.356Z,99525.75
2023-03-06T20:20:07.175Z,99527.53
2023-03-06T20:22:39.855Z,99521.19
2023-03-06T20:25:10.512Z,99486.25
2023-03-06T20:27:40.852Z,99511.66
2023-03-06T20:30:12.395Z,99517.66
2023-03-06T20:32:42.514Z,99507.50
2023-03-06T20:35:12.896Z,99503.25
2023-03-06T20:37:45.393Z,99507.50
2023-03-06T20:40:16.285Z,99500.59
2023-03-06T20:42:46.389Z,99486.09
2023-03-06T20:45:16.420Z,99481.13
2023-03-06T20:47:47.252Z,99488.03
2023-03-06T20:50:18.110Z,99482.31
2023-03-06T20:52:50.698Z,99485.56
2023-03-06T20:55:22.293Z,99479.00
2023-03-06T20:57:52.789Z,99477.13
2023-03-06T21:00:25.537Z,99474.81
2023-03-06T21:02:55.768Z,99470.44
2023-03-06T21:05:25.798Z,99468.16
2023-03-06T21:07:58.467Z,99462.19
2023-03-06T21:10:29.363Z,99453.69
2023-03-06T21:12:59.802Z,99457.63
2023-03-06T21:15:31.108Z,99432.13
2023-03-06T21:18:01.829Z,99447.63
2023-03-06T21:20:31.881Z,99441.03
2023-03-06T21:23:04.537Z,99429.63
2023-03-06T21:25:34.542Z,99428.78
2023-03-06T21:28:04.601Z,99415.91
2023-03-06T21:30:34.658Z,99418.31
2023-03-06T21:33:04.799Z,99416.59
2023-03-06T21:35:34.785Z,99418.22
2023-03-06T21:38:07.499Z,99415.56
2023-03-06T21:40:37.753Z,99416.88
2023-03-06T21:43:08.990Z,99403.41
2023-03-06T21:45:39.085Z,99398.16
2023-03-06T21:48:09.590Z,99387.63
2023-03-06T21:50:39.886Z,99384.44
2023-03-06T21:53:12.777Z,99341.00
2023-03-06T21:55:43.389Z,99378.84
2023-03-06T21:58:13.508Z,99364.75
2023-03-06T22:00:43.696Z,99378.00
2023-03-06T22:03:13.752Z,99361.66
2023-03-06T22:05:43.745Z,99355.66
2023-03-06T22:08:16.476Z,99357.13
2023-03-06T22:10:48.448Z,99344.41
2023-03-06T22:13:19.278Z,99318.78
2023-03-06T22:15:55.350Z,99337.41
2023-03-06T22:18:26.380Z,99336.66
2023-03-06T22:20:56.319Z,99315.88
2023-03-06T22:23:28.851Z,99320.97
2023-03-06T22:25:59.100Z,99315.75
2023-03-06T22:28:28.999Z,99325.25
2023-03-06T22:30:58.999Z,99319.41
2023-03-06T22:33:29.019Z,99312.84
2023-03-06T22:36:06.230Z,99303.63
2023-03-06T22:38:41.834Z,99301.56
2023-03-06T22:41:13.072Z,99288.25
2023-03-06T22:43:44.076Z,99278.59
2023-03-06T22:46:16.718Z,99274.06
2023-03-06T22:48:47.562Z,99268.53
2023-03-06T22:51:19.768Z,99265.16
2023-03-06T22:53:52.491Z,99251.69
2023-03-06T22:56:24.106Z,99255.78
2023-03-06T22:58:54.025Z,99252.72
2023-03-06T23:01:25.939Z,99223.03
2023-03-06T23:03:58.017Z,99228.47
2023-03-06T23:06:30.481Z,99231.25
2023-03-06T23:09:05.969Z,99225.69
2023-03-06T23:11:54.951Z,99217.06
2023-03-06T23:14:43.761Z,99182.69
2023-03-06T23:17:32.376Z,99205.50
2023-03-06T23:20:21.640Z,99199.34
2023-03-06T23:23:10.007Z,99188.25
2023-03-06T23:25:49.083Z,99170.41
2023-03-06T23:28:19.220Z,99180.50
2023-03-06T23:30:49.253Z,99166.44
2023-03-06T23:33:19.105Z,99173.63
2023-03-06T23:35:49.225Z,99160.47
2023-03-06T23:38:19.166Z,99164.97
2023-03-06T23:40:51.767Z,99149.31
2023-03-06T23:43:21.640Z,99146.69
2023-03-06T23:45:56.008Z,99146.09
2023-03-06T23:48:26.820Z,99137.91
2023-03-06T23:50:57.266Z,99134.09
2023-03-06T23:53:27.206Z,99114.78
2023-03-06T23:55:59.819Z,99113.34
2023-03-06T23:58:29.848Z,99109.81
